createdAt,value
2017-04-30T00:00:44.389Z,62.80
2017-04-30T00:03:13.424Z,62.80
2017-04-30T00:05:43.213Z,63.00
2017-04-30T00:08:12.255Z,63.20
2017-04-30T00:10:41.323Z,63.10
2017-04-30T00:13:11.125Z,63.30
2017-04-30T00:15:40.216Z,63.20
2017-04-30T00:18:10.038Z,64.50
2017-04-30T00:20:39.813Z,64.00
2017-04-30T00:23:09.425Z,64.10
2017-04-30T00:25:38.448Z,64.30
2017-04-30T00:28:07.489Z,64.10
2017-04-30T00:30:36.526Z,64.00
2017-04-30T00:33:05.613Z,64.40
2017-04-30T00:35:34.632Z,64.20
2017-04-30T00:38:04.391Z,64.40
2017-04-30T00:40:33.430Z,64.00
2017-04-30T00:43:03.202Z,63.90
2017-04-30T00:45:32.247Z,64.00
2017-04-30T00:48:01.291Z,64.20
2017-04-30T00:50:30.349Z,64.00
2017-04-30T00:52:59.383Z,64.40
2017-04-30T00:55:28.394Z,64.20
2017-04-30T00:57:58.196Z,64.40
2017-04-30T01:00:27.308Z,64.60
2017-04-30T01:02:56.355Z,64.90
2017-04-30T01:05:25.393Z,65.10
2017-04-30T01:07:55.212Z,64.90
2017-04-30T01:10:24.984Z,64.90
2017-04-30T01:12:54.011Z,65.20
2017-04-30T01:15:23.797Z,65.30
2017-04-30T01:17:52.840Z,65.70
2017-04-30T01:20:21.879Z,65.50
2017-04-30T01:22:50.919Z,65.30
2017-04-30T01:25:19.988Z,65.30
2017-04-30T01:27:49.763Z,65.20
2017-04-30T01:30:18.803Z,65.10
2017-04-30T01:32:48.595Z,65.20
2017-04-30T01:35:17.628Z,65.10
2017-04-30T01:37:46.663Z,65.60
2017-04-30T01:40:15.691Z,65.20
2017-04-30T01:42:44.733Z,65.00
2017-04-30T01:45:13.775Z,65.20
2017-04-30T01:47:42.798Z,65.00
2017-04-30T01:50:11.848Z,65.80
2017-04-30T01:52:40.867Z,65.10
2017-04-30T01:55:10.655Z,65.40
2017-04-30T01:57:39.691Z,65.40
2017-04-30T02:00:08.755Z,65.20
2017-04-30T02:02:37.777Z,65.70
2017-04-30T02:05:06.806Z,65.50
2017-04-30T02:07:35.843Z,65.90
2017-04-30T02:10:05.635Z,65.40
2017-04-30T02:12:34.681Z,65.20
2017-04-30T02:15:03.695Z,64.90
2017-04-30T02:17:32.754Z,64.70
2017-04-30T02:20:01.812Z,64.50
2017-04-30T02:22:30.838Z,64.10
2017-04-30T02:24:59.872Z,63.80
2017-04-30T02:27:28.927Z,64.00
2017-04-30T02:29:57.961Z,63.80
2017-04-30T02:32:26.997Z,64.00
2017-04-30T02:34:56.808Z,64.20
2017-04-30T02:37:26.565Z,64.90
2017-04-30T02:39:56.166Z,65.00
2017-04-30T02:42:25.324Z,64.90
2017-04-30T02:44:54.390Z,64.90
2017-04-30T02:47:23.454Z,64.80
2017-04-30T02:49:52.478Z,65.30
2017-04-30T02:52:21.545Z,65.00
2017-04-30T02:54:50.573Z,65.40
2017-04-30T02:57:19.597Z,65.60
2017-04-30T02:59:48.692Z,65.90
2017-04-30T03:02:18.454Z,66.30
2017-04-30T03:04:47.502Z,66.20
2017-04-30T03:07:16.539Z,67.20
2017-04-30T03:09:45.616Z,66.40
2017-04-30T03:12:14.638Z,66.70
2017-04-30T03:14:43.666Z,67.10
2017-04-30T03:17:13.455Z,67.30
2017-04-30T03:19:42.500Z,67.60
2017-04-30T03:22:11.663Z,67.70
2017-04-30T03:24:40.675Z,67.50
2017-04-30T03:29:44.992Z,68.00
2017-04-30T03:32:14.785Z,68.10
2017-04-30T03:34:43.813Z,68.50
2017-04-30T03:37:12.840Z,68.10
2017-04-30T03:39:53.807Z,68.00
2017-04-30T03:42:40.737Z,67.50
2017-04-30T03:45:28.441Z,67.70
2017-04-30T03:48:15.493Z,67.30
2017-04-30T03:51:02.353Z,67.10
2017-04-30T03:53:49.438Z,67.30
2017-04-30T03:56:36.274Z,67.10
2017-04-30T03:59:23.235Z,67.20
2017-04-30T04:02:10.187Z,67.30
2017-04-30T04:04:57.274Z,66.80
2017-04-30T04:07:44.278Z,67.50
2017-04-30T04:10:31.169Z,67.80
2017-04-30T04:13:18.250Z,67.80
2017-04-30T04:16:05.733Z,67.50
2017-04-30T04:18:53.457Z,67.60
2017-04-30T04:21:40.490Z,67.00
2017-04-30T04:24:27.345Z,67.10
2017-04-30T04:27:14.406Z,67.50
2017-04-30T04:30:01.892Z,67.10
2017-04-30T04:32:48.988Z,66.90
2017-04-30T04:35:35.928Z,66.70
2017-04-30T04:38:22.839Z,66.40
2017-04-30T04:41:09.656Z,66.50
2017-04-30T04:43:56.693Z,66.50
2017-04-30T04:46:43.693Z,66.40
2017-04-30T04:49:30.798Z,66.00
2017-04-30T04:52:17.827Z,66.10
2017-04-30T04:55:04.893Z,65.90
2017-04-30T04:57:51.857Z,65.40
2017-04-30T05:00:38.755Z,64.90
2017-04-30T05:03:25.629Z,64.30
2017-04-30T05:06:13.357Z,63.90
2017-04-30T05:09:00.309Z,63.80
2017-04-30T05:11:47.338Z,63.20
2017-04-30T05:14:34.144Z,63.00
2017-04-30T05:17:21.078Z,63.00
2017-04-30T05:20:08.049Z,62.60
2017-04-30T05:22:55.210Z,62.20
2017-04-30T05:25:42.078Z,61.90
2017-04-30T05:28:29.753Z,61.90
2017-04-30T05:31:16.485Z,61.70
2017-04-30T05:34:03.502Z,61.40
2017-04-30T05:36:50.366Z,61.20
2017-04-30T05:39:37.269Z,60.50
2017-04-30T05:42:24.865Z,60.20
2017-04-30T05:45:12.664Z,59.70
2017-04-30T05:47:59.462Z,59.50
2017-04-30T05:50:46.449Z,59.50
2017-04-30T05:53:33.440Z,59.50
2017-04-30T05:56:20.653Z,58.60
2017-04-30T05:59:07.726Z,58.40
2017-04-30T06:01:54.857Z,58.70
2017-04-30T06:04:41.694Z,58.20
2017-04-30T06:07:28.646Z,57.60
2017-04-30T06:10:15.617Z,57.50
2017-04-30T06:13:02.534Z,56.90
2017-04-30T06:15:50.327Z,56.50
2017-04-30T06:18:37.357Z,57.00
2017-04-30T06:21:24.259Z,56.40
2017-04-30T06:24:11.323Z,55.80
2017-04-30T06:26:58.325Z,55.70
2017-04-30T06:29:45.188Z,55.20
2017-04-30T06:32:32.189Z,54.60
2017-04-30T06:35:19.096Z,54.20
2017-04-30T06:38:05.981Z,54.00
2017-04-30T06:40:52.926Z,53.80
2017-04-30T06:43:39.753Z,53.10
2017-04-30T06:46:26.705Z,52.10
2017-04-30T06:49:14.411Z,51.70
2017-04-30T06:52:02.142Z,51.50
2017-04-30T06:54:49.016Z,51.20
2017-04-30T06:57:36.149Z,51.00
2017-04-30T07:00:22.998Z,50.70
2017-04-30T07:03:10.816Z,50.10
2017-04-30T07:05:57.830Z,50.00
2017-04-30T07:08:44.677Z,49.60
2017-04-30T07:11:32.474Z,49.30
2017-04-30T07:14:19.477Z,48.70
2017-04-30T07:17:06.520Z,48.20
2017-04-30T07:19:54.102Z,47.60
2017-04-30T07:22:40.947Z,47.30
2017-04-30T07:25:27.933Z,46.90
2017-04-30T07:28:14.877Z,45.20
2017-04-30T07:31:01.728Z,45.10
2017-04-30T07:33:48.809Z,44.60
2017-04-30T07:36:35.885Z,44.70
2017-04-30T07:39:23.036Z,44.60
2017-04-30T07:42:10.041Z,43.70
2017-04-30T07:44:45.173Z,43.70
2017-04-30T07:47:14.213Z,42.80
2017-04-30T07:49:43.267Z,42.10
2017-04-30T07:52:12.303Z,40.50
2017-04-30T07:54:41.360Z,39.60
2017-04-30T07:57:10.393Z,39.60
2017-04-30T07:59:39.452Z,37.90
2017-04-30T08:02:08.486Z,37.70
2017-04-30T08:04:37.530Z,37.30
2017-04-30T08:07:06.570Z,36.00
2017-04-30T08:09:35.606Z,35.10
2017-04-30T08:12:04.666Z,35.50
2017-04-30T08:14:33.689Z,35.50
2017-04-30T08:17:02.773Z,34.30
2017-04-30T08:19:31.797Z,34.00
2017-04-30T08:22:00.842Z,33.10
2017-04-30T08:24:29.959Z,34.00
2017-04-30T08:26:58.993Z,33.70
2017-04-30T08:29:28.018Z,32.90
2017-04-30T08:31:57.087Z,33.10
2017-04-30T08:34:26.122Z,32.10
2017-04-30T08:36:55.176Z,32.10
2017-04-30T08:39:24.257Z,31.70
2017-04-30T08:41:53.285Z,31.60
2017-04-30T08:44:22.345Z,31.00
2017-04-30T08:46:51.359Z,30.20
2017-04-30T08:49:20.411Z,30.40
2017-04-30T08:51:49.435Z,29.90
2017-04-30T08:54:18.482Z,29.50
2017-04-30T08:56:48.241Z,31.40
2017-04-30T08:59:17.300Z,30.70
2017-04-30T09:01:46.356Z,29.80
2017-04-30T09:04:15.389Z,29.60
2017-04-30T09:06:44.417Z,29.80
2017-04-30T09:09:13.468Z,29.40
2017-04-30T09:11:43.328Z,29.80
2017-04-30T09:14:12.381Z,29.10
2017-04-30T09:16:41.405Z,29.70
2017-04-30T09:19:10.455Z,28.00
2017-04-30T09:21:40.237Z,27.30
2017-04-30T09:24:09.287Z,26.60
2017-04-30T09:26:38.325Z,27.10
2017-04-30T09:29:07.373Z,27.50
2017-04-30T09:31:36.425Z,27.10
2017-04-30T09:34:05.478Z,28.20
2017-04-30T09:36:34.528Z,28.60
2017-04-30T09:39:03.557Z,28.00
2017-04-30T09:41:32.613Z,27.60
2017-04-30T09:44:02.400Z,26.30
2017-04-30T09:46:31.446Z,25.90
2017-04-30T09:49:00.478Z,25.70
2017-04-30T09:51:29.522Z,26.30
2017-04-30T09:53:59.286Z,26.10
2017-04-30T09:56:28.423Z,26.10
2017-04-30T09:58:57.450Z,25.30
2017-04-30T10:01:26.480Z,25.60
2017-04-30T10:03:55.525Z,25.50
2017-04-30T10:06:24.549Z,25.50
2017-04-30T10:08:53.603Z,26.40
2017-04-30T10:11:22.653Z,26.90
2017-04-30T10:13:51.714Z,25.20
2017-04-30T10:16:20.772Z,24.70
2017-04-30T10:18:49.799Z,24.40
2017-04-30T10:21:18.844Z,24.10
2017-04-30T10:23:47.866Z,24.00
2017-04-30T10:26:16.922Z,24.60
2017-04-30T10:28:45.954Z,24.40
2017-04-30T10:31:14.993Z,24.70
2017-04-30T10:33:44.031Z,24.70
2017-04-30T10:36:13.822Z,24.20
2017-04-30T10:38:42.871Z,24.00
2017-04-30T10:41:11.883Z,23.00
2017-04-30T10:43:40.957Z,22.40
2017-04-30T10:46:09.979Z,22.80
2017-04-30T10:48:39.031Z,23.00
2017-04-30T10:51:08.060Z,22.70
2017-04-30T10:53:37.200Z,22.40
2017-04-30T10:56:06.207Z,22.90
2017-04-30T10:58:35.234Z,23.30
2017-04-30T11:01:04.298Z,22.80
2017-04-30T11:03:33.391Z,22.80
2017-04-30T11:06:03.152Z,22.90
2017-04-30T11:08:32.182Z,22.80
2017-04-30T11:11:01.969Z,22.40
2017-04-30T11:13:31.067Z,22.40
2017-04-30T11:16:00.542Z,22.90
2017-04-30T11:18:29.618Z,22.50
2017-04-30T11:20:58.649Z,21.80
2017-04-30T11:23:27.703Z,22.50
2017-04-30T11:25:56.729Z,22.50
2017-04-30T11:28:25.809Z,22.20
2017-04-30T11:30:55.107Z,21.30
2017-04-30T11:33:24.137Z,21.30
2017-04-30T11:35:53.181Z,22.20
2017-04-30T11:38:22.214Z,22.00
2017-04-30T11:40:51.265Z,22.60
2017-04-30T11:43:20.309Z,22.60
2017-04-30T11:45:49.356Z,22.50
2017-04-30T11:48:18.416Z,21.60
2017-04-30T11:50:48.203Z,21.50
2017-04-30T11:53:17.243Z,23.20
2017-04-30T11:55:46.272Z,24.80
2017-04-30T11:58:15.318Z,25.00
2017-04-30T12:00:44.356Z,26.00
2017-04-30T12:03:13.408Z,26.50
2017-04-30T12:05:42.537Z,26.00
2017-04-30T12:08:11.565Z,24.10
2017-04-30T12:10:40.681Z,22.90
2017-04-30T12:13:09.692Z,21.10
2017-04-30T12:15:38.740Z,21.10
2017-04-30T12:18:07.769Z,21.20
2017-04-30T12:20:37.564Z,20.70
2017-04-30T12:23:07.330Z,21.20
2017-04-30T12:25:36.369Z,20.50
2017-04-30T12:28:06.150Z,20.10
2017-04-30T12:30:35.189Z,20.00
2017-04-30T12:33:04.969Z,19.90
2017-04-30T12:35:34.020Z,20.90
2017-04-30T12:38:03.057Z,21.20
2017-04-30T12:40:32.143Z,21.60
2017-04-30T12:43:01.269Z,21.70
2017-04-30T12:45:30.281Z,21.50
2017-04-30T12:47:59.313Z,21.00
2017-04-30T12:50:28.354Z,21.70
2017-04-30T12:52:58.131Z,22.20
2017-04-30T12:55:27.206Z,22.70
2017-04-30T12:57:56.247Z,21.70
2017-04-30T13:00:26.046Z,21.60
2017-04-30T13:02:55.154Z,21.60
2017-04-30T13:05:24.920Z,22.30
2017-04-30T13:07:53.973Z,21.70
2017-04-30T13:10:23.770Z,21.50
2017-04-30T13:12:52.803Z,21.70
2017-04-30T13:15:21.838Z,21.60
2017-04-30T13:17:50.896Z,21.20
2017-04-30T13:20:19.955Z,21.50
2017-04-30T13:22:48.970Z,21.80
2017-04-30T13:25:18.005Z,21.60
2017-04-30T13:27:47.073Z,21.40
2017-04-30T13:30:16.127Z,22.20
2017-04-30T13:32:45.901Z,21.00
2017-04-30T13:35:14.957Z,20.70
2017-04-30T13:37:43.983Z,21.00
2017-04-30T13:40:13.013Z,21.50
2017-04-30T13:42:42.838Z,21.60
2017-04-30T13:45:12.609Z,21.10
2017-04-30T13:47:41.658Z,19.50
2017-04-30T13:50:10.755Z,19.30
2017-04-30T13:52:39.801Z,19.80
2017-04-30T13:55:08.835Z,20.70
2017-04-30T13:57:37.870Z,20.40
2017-04-30T14:00:06.929Z,20.50
2017-04-30T14:02:35.946Z,19.70
2017-04-30T14:05:04.993Z,19.00
2017-04-30T14:07:34.778Z,19.30
2017-04-30T14:10:04.596Z,19.70
2017-04-30T14:12:33.624Z,19.60
2017-04-30T14:15:02.650Z,19.50
2017-04-30T14:17:31.699Z,19.70
2017-04-30T14:20:01.473Z,18.90
2017-04-30T14:22:30.516Z,18.60
2017-04-30T14:24:59.545Z,19.10
2017-04-30T14:27:28.606Z,19.70
2017-04-30T14:29:57.637Z,19.70
2017-04-30T14:32:26.661Z,19.50
2017-04-30T14:34:56.449Z,20.30
2017-04-30T14:37:25.505Z,21.10
2017-04-30T14:39:54.545Z,21.50
2017-04-30T14:42:23.581Z,21.60
2017-04-30T14:44:52.642Z,22.10
2017-04-30T14:47:21.734Z,20.40
2017-04-30T14:49:50.792Z,20.20
2017-04-30T14:52:19.842Z,19.60
2017-04-30T14:54:48.849Z,20.10
2017-04-30T14:57:17.909Z,19.90
2017-04-30T14:59:46.994Z,19.30
2017-04-30T15:02:16.820Z,19.90
2017-04-30T15:04:45.932Z,19.70
2017-04-30T15:07:14.971Z,20.30
2017-04-30T15:09:44.021Z,20.80
2017-04-30T15:12:13.821Z,21.40
2017-04-30T15:14:43.589Z,21.60
2017-04-30T15:17:12.724Z,21.40
2017-04-30T15:19:41.757Z,20.60
2017-04-30T15:22:10.827Z,20.00
2017-04-30T15:24:40.637Z,20.00
2017-04-30T15:27:09.673Z,21.10
2017-04-30T15:29:38.710Z,20.90
2017-04-30T15:32:07.753Z,21.20
2017-04-30T15:34:36.801Z,21.80
2017-04-30T15:37:05.848Z,21.40
2017-04-30T15:39:34.868Z,21.80
2017-04-30T15:42:04.040Z,22.10
2017-04-30T15:44:33.105Z,23.10
2017-04-30T15:47:02.153Z,23.20
2017-04-30T15:49:31.181Z,23.00
2017-04-30T15:52:00.972Z,23.40
2017-04-30T15:54:30.087Z,23.20
2017-04-30T15:56:59.864Z,23.20
2017-04-30T15:59:28.901Z,23.00
2017-04-30T16:01:57.949Z,23.70
2017-04-30T16:04:26.982Z,22.50
2017-04-30T16:06:56.773Z,23.20
2017-04-30T16:09:25.797Z,23.10
2017-04-30T16:11:54.912Z,23.70
2017-04-30T16:14:23.929Z,24.00
2017-04-30T16:16:52.977Z,23.80
2017-04-30T16:19:22.009Z,24.00
2017-04-30T16:21:51.047Z,23.70
2017-04-30T16:24:20.821Z,23.70
2017-04-30T16:26:49.895Z,23.20
2017-04-30T16:29:18.909Z,23.00
2017-04-30T16:31:47.945Z,23.40
2017-04-30T16:34:17.725Z,23.60
2017-04-30T16:36:46.854Z,24.60
2017-04-30T16:39:15.887Z,24.70
2017-04-30T16:41:44.908Z,24.70
2017-04-30T16:44:13.964Z,24.80
2017-04-30T16:46:42.996Z,25.20
2017-04-30T16:49:12.045Z,25.40
2017-04-30T16:51:41.079Z,25.30
2017-04-30T16:54:10.116Z,25.10
2017-04-30T16:56:39.159Z,25.40
2017-04-30T16:59:08.199Z,25.20
2017-04-30T17:01:37.966Z,25.50
2017-04-30T17:04:07.009Z,25.30
2017-04-30T17:06:36.049Z,25.90
2017-04-30T17:09:05.090Z,26.00
2017-04-30T17:11:34.864Z,26.20
2017-04-30T17:14:03.898Z,26.60
2017-04-30T17:16:33.670Z,27.10
2017-04-30T17:19:02.718Z,27.30
2017-04-30T17:21:31.746Z,27.50
2017-04-30T17:24:00.802Z,27.70
2017-04-30T17:26:30.654Z,28.20
2017-04-30T17:28:59.685Z,28.40
2017-04-30T17:31:29.459Z,28.50
2017-04-30T17:33:58.507Z,28.30
2017-04-30T17:36:27.544Z,28.50
2017-04-30T17:38:56.613Z,29.00
2017-04-30T17:41:25.641Z,28.70
2017-04-30T17:43:54.698Z,28.60
2017-04-30T17:46:23.754Z,28.50
2017-04-30T17:48:52.787Z,28.50
2017-04-30T17:51:21.817Z,28.70
2017-04-30T17:53:50.881Z,28.90
2017-04-30T17:56:19.911Z,29.20
2017-04-30T17:58:48.973Z,29.30
2017-04-30T18:01:18.001Z,29.40
2017-04-30T18:03:47.038Z,29.50
2017-04-30T18:06:16.088Z,30.10
2017-04-30T18:08:45.244Z,29.80
2017-04-30T18:11:14.315Z,30.00
2017-04-30T18:13:43.334Z,30.10
2017-04-30T18:16:12.396Z,30.50
2017-04-30T18:18:42.176Z,30.00
2017-04-30T18:21:11.220Z,30.20
2017-04-30T18:23:40.254Z,30.20
2017-04-30T18:26:09.334Z,30.60
2017-04-30T18:28:38.333Z,31.00
2017-04-30T18:31:07.381Z,30.80
2017-04-30T18:33:37.150Z,30.90
2017-04-30T18:36:06.219Z,31.20
2017-04-30T18:38:35.238Z,31.40
2017-04-30T18:41:04.300Z,31.70
2017-04-30T18:43:33.318Z,31.80
2017-04-30T18:46:02.373Z,31.90
2017-04-30T18:48:31.418Z,32.10
2017-04-30T18:51:00.475Z,32.10
2017-04-30T18:53:29.505Z,32.30
2017-04-30T18:55:58.568Z,32.40
2017-04-30T18:58:27.581Z,32.80
2017-04-30T19:00:56.677Z,32.80
2017-04-30T19:03:25.713Z,32.90
2017-04-30T19:05:55.489Z,33.10
2017-04-30T19:08:24.539Z,33.40
2017-04-30T19:10:53.584Z,33.50
2017-04-30T19:13:23.375Z,33.70
2017-04-30T19:15:52.430Z,33.70
2017-04-30T19:18:21.499Z,34.10
2017-04-30T19:20:50.532Z,34.10
2017-04-30T19:23:19.662Z,34.60
2017-04-30T19:25:48.744Z,34.70
2017-04-30T19:28:17.769Z,34.80
2017-04-30T19:30:46.878Z,35.00
2017-04-30T19:33:15.907Z,35.00
2017-04-30T19:35:44.956Z,35.10
2017-04-30T19:38:14.733Z,35.40
2017-04-30T19:40:43.775Z,35.40
2017-04-30T19:43:13.557Z,35.60
2017-04-30T19:45:42.614Z,35.60
2017-04-30T19:48:11.661Z,35.90
2017-04-30T19:50:40.686Z,36.00
2017-04-30T19:53:09.729Z,36.70
2017-04-30T19:55:38.770Z,37.00
2017-04-30T19:58:07.854Z,37.00
2017-04-30T20:00:36.942Z,37.60
2017-04-30T20:03:06.092Z,37.50
2017-04-30T20:05:35.138Z,38.00
2017-04-30T20:08:04.909Z,38.10
2017-04-30T20:10:33.958Z,38.10
2017-04-30T20:13:03.072Z,38.30
2017-04-30T20:15:32.082Z,38.50
2017-04-30T20:18:01.209Z,38.60
2017-04-30T20:20:30.329Z,38.70
2017-04-30T20:23:00.102Z,38.80
2017-04-30T20:25:29.191Z,39.80
2017-04-30T20:27:58.263Z,39.40
2017-04-30T20:30:27.318Z,39.60
2017-04-30T20:32:57.150Z,40.00
2017-04-30T20:35:26.179Z,40.20
2017-04-30T20:37:55.258Z,40.10
2017-04-30T20:40:24.300Z,40.30
2017-04-30T20:42:54.168Z,41.40
2017-04-30T20:45:23.224Z,40.90
2017-04-30T20:47:52.310Z,40.70
2017-04-30T20:50:22.089Z,40.90
2017-04-30T20:52:51.146Z,41.00
2017-04-30T20:55:20.168Z,41.00
2017-04-30T20:57:49.227Z,40.70
2017-04-30T21:00:18.252Z,41.20
2017-04-30T21:02:47.310Z,40.80
2017-04-30T21:05:16.353Z,41.10
2017-04-30T21:07:45.383Z,41.90
2017-04-30T21:10:15.186Z,41.50
2017-04-30T21:12:44.965Z,42.40
2017-04-30T21:15:14.013Z,41.90
2017-04-30T21:17:43.046Z,42.00
2017-04-30T21:20:12.109Z,42.30
2017-04-30T21:22:41.147Z,42.40
2017-04-30T21:25:11.058Z,42.90
2017-04-30T21:27:40.101Z,42.90
2017-04-30T21:30:09.144Z,42.70
2017-04-30T21:32:38.188Z,42.80
2017-04-30T21:35:07.242Z,42.70
2017-04-30T21:37:36.365Z,43.00
2017-04-30T21:40:05.393Z,42.90
2017-04-30T21:42:34.501Z,42.70
2017-04-30T21:45:03.567Z,43.30
2017-04-30T21:47:32.602Z,43.40
2017-04-30T21:50:01.649Z,43.20
2017-04-30T21:52:30.685Z,43.90
2017-04-30T21:55:00.086Z,43.80
2017-04-30T21:57:29.107Z,44.30
2017-04-30T21:59:58.222Z,44.60
2017-04-30T22:02:27.234Z,44.70
2017-04-30T22:04:56.296Z,44.90
2017-04-30T22:07:25.335Z,44.70
2017-04-30T22:09:54.378Z,44.80
2017-04-30T22:12:23.415Z,45.20
2017-04-30T22:14:52.462Z,45.40
2017-04-30T22:17:21.488Z,45.30
2017-04-30T22:19:50.553Z,45.40
2017-04-30T22:22:19.575Z,45.80
2017-04-30T22:24:48.629Z,45.90
2017-04-30T22:27:17.669Z,45.70
2017-04-30T22:32:22.109Z,45.90
2017-04-30T22:34:51.157Z,45.80
2017-04-30T22:37:20.193Z,45.80
2017-04-30T22:39:49.246Z,46.30
2017-04-30T22:42:18.288Z,46.40
2017-04-30T22:44:47.474Z,45.90
2017-04-30T22:47:17.231Z,46.50
2017-04-30T22:49:46.285Z,46.50
2017-04-30T22:52:15.304Z,46.80
2017-04-30T22:54:44.391Z,47.20
2017-04-30T22:57:13.401Z,47.40
2017-04-30T22:59:42.459Z,47.80
2017-04-30T23:02:11.484Z,47.80
2017-04-30T23:04:40.608Z,47.70
2017-04-30T23:07:09.635Z,48.00
2017-04-30T23:09:39.417Z,48.20
2017-04-30T23:12:08.528Z,48.10
2017-04-30T23:14:38.326Z,48.00
2017-04-30T23:17:07.377Z,48.20
2017-04-30T23:19:36.405Z,48.50
2017-04-30T23:22:05.466Z,48.20
2017-04-30T23:24:34.497Z,48.80
2017-04-30T23:27:03.561Z,48.90
2017-04-30T23:29:32.586Z,48.90
2017-04-30T23:32:02.474Z,49.00
2017-04-30T23:34:31.520Z,48.70
2017-04-30T23:37:00.599Z,48.20
2017-04-30T23:39:30.382Z,48.60
2017-04-30T23:41:59.429Z,48.50
2017-04-30T23:44:29.187Z,48.50
2017-04-30T23:46:58.246Z,48.80
2017-04-30T23:49:27.274Z,49.00
2017-04-30T23:51:56.329Z,48.70
2017-04-30T23:54:25.361Z,49.20
2017-04-30T23:56:54.401Z,49.20
2017-04-30T23:59:23.434Z,49.60
